sensor_id;sensor_type;location;lat;lon;timestamp;pressure;altitude;pressure_sealevel;temperature;humidity
21182;BME280;10749;46.296;7.524;2023-07-16T00:02:20;94723.72;;;27.31;36.26
21182;BME280;10749;46.296;7.524;2023-07-16T00:04:45;94714.25;;;27.28;36.50
21182;BME280;10749;46.296;7.524;2023-07-16T00:07:10;94715.59;;;27.26;36.09
21182;BME280;10749;46.296;7.524;2023-07-16T00:09:36;94715.06;;;27.29;35.66
21182;BME280;10749;46.296;7.524;2023-07-16T00:12:02;94717.47;;;27.30;36.05
21182;BME280;10749;46.296;7.524;2023-07-16T00:14:27;94720.75;;;27.27;36.27
21182;BME280;10749;46.296;7.524;2023-07-16T00:16:52;94732.81;;;27.16;36.78
21182;BME280;10749;46.296;7.524;2023-07-16T00:19:18;94727.13;;;27.13;36.94
21182;BME280;10749;46.296;7.524;2023-07-16T00:21:43;94736.16;;;27.08;36.83
21182;BME280;10749;46.296;7.524;2023-07-16T00:24:08;94739.66;;;27.08;36.81
21182;BME280;10749;46.296;7.524;2023-07-16T00:26:33;94749.44;;;27.09;36.42
21182;BME280;10749;46.296;7.524;2023-07-16T00:28:59;94749.19;;;27.06;36.02
21182;BME280;10749;46.296;7.524;2023-07-16T00:31:24;94758.19;;;27.01;34.94
21182;BME280;10749;46.296;7.524;2023-07-16T00:33:49;94757.69;;;26.99;35.49
21182;BME280;10749;46.296;7.524;2023-07-16T00:36:15;94756.84;;;27.04;36.11
21182;BME280;10749;46.296;7.524;2023-07-16T00:38:40;94746.47;;;27.06;35.39
21182;BME280;10749;46.296;7.524;2023-07-16T00:41:06;94751.13;;;27.00;36.87
21182;BME280;10749;46.296;7.524;2023-07-16T00:43:32;94758.28;;;26.91;38.15
21182;BME280;10749;46.296;7.524;2023-07-16T00:45:58;94759.13;;;26.87;37.65
21182;BME280;10749;46.296;7.524;2023-07-16T00:48:23;94757.63;;;26.66;37.16
21182;BME280;10749;46.296;7.524;2023-07-16T00:50:50;94756.09;;;26.54;37.99
21182;BME280;10749;46.296;7.524;2023-07-16T00:53:17;94759.03;;;26.58;38.27
21182;BME280;10749;46.296;7.524;2023-07-16T00:55:44;94767.44;;;26.56;38.10
21182;BME280;10749;46.296;7.524;2023-07-16T00:58:10;94764.50;;;26.48;38.51
21182;BME280;10749;46.296;7.524;2023-07-16T01:00:36;94769.13;;;26.47;38.67
21182;BME280;10749;46.296;7.524;2023-07-16T01:03:04;94768.59;;;26.45;38.58
21182;BME280;10749;46.296;7.524;2023-07-16T01:05:36;94778.41;;;26.36;39.72
21182;BME280;10749;46.296;7.524;2023-07-16T01:08:06;94764.59;;;26.33;39.10
21182;BME280;10749;46.296;7.524;2023-07-16T01:10:34;94771.97;;;26.22;40.10
21182;BME280;10749;46.296;7.524;2023-07-16T01:13:00;94770.38;;;26.11;39.01
21182;BME280;10749;46.296;7.524;2023-07-16T01:15:25;94774.72;;;26.07;39.17
21182;BME280;10749;46.296;7.524;2023-07-16T01:17:51;94784.50;;;26.03;39.71
21182;BME280;10749;46.296;7.524;2023-07-16T01:20:16;94776.44;;;25.88;39.94
21182;BME280;10749;46.296;7.524;2023-07-16T01:25:29;94795.47;;;25.62;39.47
21182;BME280;10749;46.296;7.524;2023-07-16T01:28:03;94792.22;;;25.55;40.56
21182;BME280;10749;46.296;7.524;2023-07-16T01:30:31;94799.81;;;25.58;39.19
21182;BME280;10749;46.296;7.524;2023-07-16T01:32:57;94794.38;;;25.48;38.99
21182;BME280;10749;46.296;7.524;2023-07-16T01:35:23;94796.00;;;25.39;39.71
21182;BME280;10749;46.296;7.524;2023-07-16T01:37:48;94807.38;;;25.41;40.33
21182;BME280;10749;46.296;7.524;2023-07-16T01:40:14;94814.41;;;25.47;40.61
21182;BME280;10749;46.296;7.524;2023-07-16T01:42:40;94815.22;;;25.48;41.09
21182;BME280;10749;46.296;7.524;2023-07-16T01:45:06;94816.84;;;25.44;40.97
21182;BME280;10749;46.296;7.524;2023-07-16T01:50:05;94810.88;;;25.52;39.15
21182;BME280;10749;46.296;7.524;2023-07-16T01:52:30;94809.28;;;25.41;39.50
21182;BME280;10749;46.296;7.524;2023-07-16T01:54:55;94817.16;;;25.42;38.91
21182;BME280;10749;46.296;7.524;2023-07-16T01:57:21;94826.06;;;25.43;39.60
21182;BME280;10749;46.296;7.524;2023-07-16T01:59:46;94814.16;;;25.44;38.51
21182;BME280;10749;46.296;7.524;2023-07-16T02:02:11;94813.06;;;25.40;39.13
21182;BME280;10749;46.296;7.524;2023-07-16T02:04:37;94817.66;;;25.39;38.68
21182;BME280;10749;46.296;7.524;2023-07-16T02:07:02;94822.00;;;25.40;39.40
21182;BME280;10749;46.296;7.524;2023-07-16T02:09:28;94817.94;;;25.43;40.19
21182;BME280;10749;46.296;7.524;2023-07-16T02:11:54;94821.75;;;25.42;39.04
21182;BME280;10749;46.296;7.524;2023-07-16T02:14:19;94837.19;;;25.36;38.43
21182;BME280;10749;46.296;7.524;2023-07-16T02:16:44;94838.56;;;25.34;39.05
21182;BME280;10749;46.296;7.524;2023-07-16T02:19:10;94841.00;;;25.30;40.19
21182;BME280;10749;46.296;7.524;2023-07-16T02:21:35;94851.53;;;25.26;40.15
21182;BME280;10749;46.296;7.524;2023-07-16T02:24:00;94854.78;;;25.23;40.11
21182;BME280;10749;46.296;7.524;2023-07-16T02:26:26;94842.63;;;25.26;40.41
21182;BME280;10749;46.296;7.524;2023-07-16T02:28:51;94844.50;;;25.36;39.86
21182;BME280;10749;46.296;7.524;2023-07-16T02:31:16;94851.00;;;25.30;40.20
21182;BME280;10749;46.296;7.524;2023-07-16T02:33:42;94842.06;;;25.34;40.10
21182;BME280;10749;46.296;7.524;2023-07-16T02:36:07;94842.59;;;25.31;40.56
21182;BME280;10749;46.296;7.524;2023-07-16T02:38:32;94856.69;;;25.28;40.66
21182;BME280;10749;46.296;7.524;2023-07-16T02:40:58;94851.25;;;25.23;40.60
21182;BME280;10749;46.296;7.524;2023-07-16T02:43:23;94849.38;;;25.13;41.11
21182;BME280;10749;46.296;7.524;2023-07-16T02:45:48;94850.19;;;25.09;41.54
21182;BME280;10749;46.296;7.524;2023-07-16T02:48:14;94858.31;;;25.04;41.66
21182;BME280;10749;46.296;7.524;2023-07-16T02:50:39;94867.78;;;24.96;41.06
21182;BME280;10749;46.296;7.524;2023-07-16T02:53:05;94865.88;;;24.92;39.96
21182;BME280;10749;46.296;7.524;2023-07-16T02:55:31;94858.53;;;24.87;39.98
21182;BME280;10749;46.296;7.524;2023-07-16T02:57:56;94865.78;;;24.81;39.67
21182;BME280;10749;46.296;7.524;2023-07-16T03:00:22;94858.47;;;24.77;40.16
21182;BME280;10749;46.296;7.524;2023-07-16T03:02:47;94879.88;;;24.83;40.49
21182;BME280;10749;46.296;7.524;2023-07-16T03:05:14;94876.69;;;24.87;40.47
21182;BME280;10749;46.296;7.524;2023-07-16T03:07:39;94866.34;;;24.83;40.09
21182;BME280;10749;46.296;7.524;2023-07-16T03:10:05;94872.84;;;24.82;40.22
21182;BME280;10749;46.296;7.524;2023-07-16T03:12:30;94866.91;;;24.80;40.83
21182;BME280;10749;46.296;7.524;2023-07-16T03:14:55;94870.41;;;24.81;41.40
21182;BME280;10749;46.296;7.524;2023-07-16T03:17:21;94876.13;;;24.85;41.28
21182;BME280;10749;46.296;7.524;2023-07-16T03:19:49;94871.00;;;24.88;40.21
21182;BME280;10749;46.296;7.524;2023-07-16T03:22:14;94879.38;;;24.87;41.24
21182;BME280;10749;46.296;7.524;2023-07-16T03:24:40;94888.28;;;24.82;41.25
21182;BME280;10749;46.296;7.524;2023-07-16T03:27:06;94888.56;;;24.86;41.22
21182;BME280;10749;46.296;7.524;2023-07-16T03:29:33;94892.66;;;24.88;40.96
21182;BME280;10749;46.296;7.524;2023-07-16T03:31:59;94902.38;;;24.84;41.25
21182;BME280;10749;46.296;7.524;2023-07-16T03:34:24;94905.59;;;24.76;41.57
21182;BME280;10749;46.296;7.524;2023-07-16T03:36:49;94907.50;;;24.80;41.51
21182;BME280;10749;46.296;7.524;2023-07-16T03:39:15;94905.28;;;24.72;41.84
21182;BME280;10749;46.296;7.524;2023-07-16T03:41:40;94904.22;;;24.78;41.44
21182;BME280;10749;46.296;7.524;2023-07-16T03:44:05;94910.13;;;24.65;41.54
21182;BME280;10749;46.296;7.524;2023-07-16T03:46:30;94907.16;;;24.62;41.51
21182;BME280;10749;46.296;7.524;2023-07-16T03:48:56;94904.50;;;24.72;40.96
21182;BME280;10749;46.296;7.524;2023-07-16T03:51:21;94911.22;;;24.69;41.69
21182;BME280;10749;46.296;7.524;2023-07-16T03:53:46;94915.00;;;24.68;41.13
21182;BME280;10749;46.296;7.524;2023-07-16T03:56:11;94913.34;;;24.57;41.78
21182;BME280;10749;46.296;7.524;2023-07-16T03:58:37;94917.97;;;24.62;41.95
21182;BME280;10749;46.296;7.524;2023-07-16T04:01:02;94927.94;;;24.56;42.19
21182;BME280;10749;46.296;7.524;2023-07-16T04:03:27;94925.81;;;24.58;41.85
21182;BME280;10749;46.296;7.524;2023-07-16T04:06:04;94932.81;;;24.49;41.20
21182;BME280;10749;46.296;7.524;2023-07-16T04:08:29;94936.00;;;24.41;40.57
21182;BME280;10749;46.296;7.524;2023-07-16T04:10:55;94941.13;;;24.38;41.82
21182;BME280;10749;46.296;7.524;2023-07-16T04:13:20;94934.38;;;24.40;42.13
21182;BME280;10749;46.296;7.524;2023-07-16T04:15:45;94948.19;;;24.44;41.20
21182;BME280;10749;46.296;7.524;2023-07-16T04:18:10;94943.88;;;24.43;42.00
21182;BME280;10749;46.296;7.524;2023-07-16T04:20:36;94956.00;;;24.40;42.45
21182;BME280;10749;46.296;7.524;2023-07-16T04:23:01;94942.78;;;24.44;42.07
21182;BME280;10749;46.296;7.524;2023-07-16T04:25:26;94941.72;;;24.45;42.31
21182;BME280;10749;46.296;7.524;2023-07-16T04:27:52;94942.53;;;24.45;42.47
21182;BME280;10749;46.296;7.524;2023-07-16T04:30:17;94949.00;;;24.39;42.74
21182;BME280;10749;46.296;7.524;2023-07-16T04:32:42;94947.66;;;24.42;42.36
21182;BME280;10749;46.296;7.524;2023-07-16T04:35:08;94956.00;;;24.40;42.48
21182;BME280;10749;46.296;7.524;2023-07-16T04:37:33;94952.25;;;24.41;42.47
21182;BME280;10749;46.296;7.524;2023-07-16T04:39:58;94948.47;;;24.42;42.26
21182;BME280;10749;46.296;7.524;2023-07-16T04:42:24;94953.34;;;24.45;41.55
21182;BME280;10749;46.296;7.524;2023-07-16T04:44:49;94955.50;;;24.43;40.94
21182;BME280;10749;46.296;7.524;2023-07-16T04:47:14;94960.34;;;24.41;41.00
21182;BME280;10749;46.296;7.524;2023-07-16T04:49:40;94966.78;;;24.35;41.15
21182;BME280;10749;46.296;7.524;2023-07-16T04:52:06;94963.81;;;24.31;41.80
21182;BME280;10749;46.296;7.524;2023-07-16T04:54:37;94965.72;;;24.36;41.63
21182;BME280;10749;46.296;7.524;2023-07-16T04:57:04;94959.22;;;24.32;40.93
21182;BME280;10749;46.296;7.524;2023-07-16T04:59:29;94955.16;;;24.29;41.36
21182;BME280;10749;46.296;7.524;2023-07-16T05:01:54;94967.03;;;24.28;41.97
21182;BME280;10749;46.296;7.524;2023-07-16T05:04:20;94965.72;;;24.36;41.53
21182;BME280;10749;46.296;7.524;2023-07-16T05:06:45;94966.00;;;24.40;41.34
21182;BME280;10749;46.296;7.524;2023-07-16T05:09:10;94959.81;;;24.44;41.29
21182;BME280;10749;46.296;7.524;2023-07-16T05:11:36;94965.72;;;24.36;41.11
21182;BME280;10749;46.296;7.524;2023-07-16T05:14:03;94976.56;;;24.36;42.08
21182;BME280;10749;46.296;7.524;2023-07-16T05:16:28;94971.75;;;24.43;41.43
21182;BME280;10749;46.296;7.524;2023-07-16T05:18:53;94977.16;;;24.43;42.15
21182;BME280;10749;46.296;7.524;2023-07-16T05:21:19;94978.19;;;24.37;42.75
21182;BME280;10749;46.296;7.524;2023-07-16T05:23:44;94973.34;;;24.39;42.83
21182;BME280;10749;46.296;7.524;2023-07-16T05:26:09;94974.63;;;24.31;43.24
21182;BME280;10749;46.296;7.524;2023-07-16T05:28:35;94983.03;;;24.35;43.07
21182;BME280;10749;46.296;7.524;2023-07-16T05:31:02;94978.75;;;24.39;43.27
21182;BME280;10749;46.296;7.524;2023-07-16T05:33:27;94985.28;;;24.48;43.11
21182;BME280;10749;46.296;7.524;2023-07-16T05:35:53;94991.78;;;24.52;42.87
21182;BME280;10749;46.296;7.524;2023-07-16T05:38:18;94986.88;;;24.39;43.19
21182;BME280;10749;46.296;7.524;2023-07-16T05:40:44;94992.28;;;24.44;43.40
21182;BME280;10749;46.296;7.524;2023-07-16T05:43:09;94998.78;;;24.43;43.31
21182;BME280;10749;46.296;7.524;2023-07-16T05:45:34;95000.47;;;24.54;42.88
21182;BME280;10749;46.296;7.524;2023-07-16T05:48:00;95008.09;;;24.62;43.13
21182;BME280;10749;46.296;7.524;2023-07-16T05:50:25;95010.81;;;24.67;43.23
21182;BME280;10749;46.296;7.524;2023-07-16T05:52:50;95022.22;;;24.74;43.15
21182;BME280;10749;46.296;7.524;2023-07-16T05:55:17;95022.84;;;24.87;42.12
21182;BME280;10749;46.296;7.524;2023-07-16T05:57:42;95032.03;;;24.86;42.67
21182;BME280;10749;46.296;7.524;2023-07-16T06:00:08;95024.75;;;24.86;42.66
21182;BME280;10749;46.296;7.524;2023-07-16T06:02:34;95032.78;;;24.81;43.09
21182;BME280;10749;46.296;7.524;2023-07-16T06:04:59;95034.72;;;24.80;42.89
21182;BME280;10749;46.296;7.524;2023-07-16T06:07:24;95020.34;;;24.75;42.88
21182;BME280;10749;46.296;7.524;2023-07-16T06:09:50;95003.03;;;24.81;43.22
21182;BME280;10749;46.296;7.524;2023-07-16T06:12:15;95016.38;;;24.93;42.86
21182;BME280;10749;46.296;7.524;2023-07-16T06:14:40;95019.88;;;24.93;43.21
21182;BME280;10749;46.296;7.524;2023-07-16T06:17:06;95017.75;;;24.95;43.08
21182;BME280;10749;46.296;7.524;2023-07-16T06:19:31;95006.66;;;24.97;42.29
21182;BME280;10749;46.296;7.524;2023-07-16T06:21:56;95012.06;;;25.02;42.10
21182;BME280;10749;46.296;7.524;2023-07-16T06:24:22;95016.66;;;24.96;42.51
21182;BME280;10749;46.296;7.524;2023-07-16T06:26:47;95015.56;;;24.97;42.58
21182;BME280;10749;46.296;7.524;2023-07-16T06:29:13;95025.59;;;25.02;42.83
21182;BME280;10749;46.296;7.524;2023-07-16T06:31:38;95031.59;;;25.04;42.65
21182;BME280;10749;46.296;7.524;2023-07-16T06:34:03;95038.63;;;25.05;42.41
21182;BME280;10749;46.296;7.524;2023-07-16T06:36:29;95044.56;;;25.02;42.46
21182;BME280;10749;46.296;7.524;2023-07-16T06:38:54;95045.66;;;25.06;42.83
21182;BME280;10749;46.296;7.524;2023-07-16T06:41:19;95034.59;;;25.12;42.72
21182;BME280;10749;46.296;7.524;2023-07-16T06:43:45;95045.72;;;25.16;43.06
21182;BME280;10749;46.296;7.524;2023-07-16T06:46:10;95040.84;;;25.18;42.87
21182;BME280;10749;46.296;7.524;2023-07-16T06:48:35;95041.94;;;25.27;42.42
21182;BME280;10749;46.296;7.524;2023-07-16T06:51:00;95040.91;;;25.33;42.25
21182;BME280;10749;46.296;7.524;2023-07-16T06:53:26;95039.25;;;25.27;42.24
21182;BME280;10749;46.296;7.524;2023-07-16T06:55:51;95038.47;;;25.37;42.08
21182;BME280;10749;46.296;7.524;2023-07-16T06:58:17;95031.16;;;25.37;42.27
21182;BME280;10749;46.296;7.524;2023-07-16T07:00:42;95030.38;;;25.47;42.41
21182;BME280;10749;46.296;7.524;2023-07-16T07:03:08;95029.28;;;25.48;42.45
21182;BME280;10749;46.296;7.524;2023-07-16T07:05:33;95024.94;;;25.42;42.76
21182;BME280;10749;46.296;7.524;2023-07-16T07:08:01;95032.81;;;25.48;42.68
21182;BME280;10749;46.296;7.524;2023-07-16T07:10:26;95022.00;;;25.53;42.34
21182;BME280;10749;46.296;7.524;2023-07-16T07:12:52;95024.75;;;25.58;42.77
21182;BME280;10749;46.296;7.524;2023-07-16T07:15:17;95020.94;;;25.64;42.85
21182;BME280;10749;46.296;7.524;2023-07-16T07:17:42;95022.84;;;25.69;42.12
21182;BME280;10749;46.296;7.524;2023-07-16T07:20:12;95030.69;;;25.65;42.40
21182;BME280;10749;46.296;7.524;2023-07-16T07:22:37;95030.69;;;25.60;42.20
21182;BME280;10749;46.296;7.524;2023-07-16T07:25:03;95026.38;;;25.69;42.33
21182;BME280;10749;46.296;7.524;2023-07-16T07:27:28;95029.63;;;25.77;42.76
21182;BME280;10749;46.296;7.524;2023-07-16T07:29:54;95029.91;;;25.85;42.67
21182;BME280;10749;46.296;7.524;2023-07-16T07:32:21;95018.81;;;25.92;42.46
21182;BME280;10749;46.296;7.524;2023-07-16T07:34:47;95016.09;;;26.02;42.52
21182;BME280;10749;46.296;7.524;2023-07-16T07:37:12;95015.81;;;26.18;42.47
21182;BME280;10749;46.296;7.524;2023-07-16T07:39:37;95011.22;;;26.24;42.37
21182;BME280;10749;46.296;7.524;2023-07-16T07:42:03;95006.88;;;26.23;42.43
21182;BME280;10749;46.296;7.524;2023-07-16T07:44:29;95006.34;;;26.26;42.43
21182;BME280;10749;46.296;7.524;2023-07-16T07:46:54;94996.28;;;26.27;42.28
21182;BME280;10749;46.296;7.524;2023-07-16T07:49:19;94991.69;;;26.27;42.02
21182;BME280;10749;46.296;7.524;2023-07-16T07:51:44;94990.59;;;26.28;42.44
21182;BME280;10749;46.296;7.524;2023-07-16T07:54:11;94981.91;;;26.31;42.16
21182;BME280;10749;46.296;7.524;2023-07-16T07:56:36;94979.19;;;26.36;42.33
21182;BME280;10749;46.296;7.524;2023-07-16T07:59:01;94983.50;;;26.42;42.54
21182;BME280;10749;46.296;7.524;2023-07-16T08:01:27;94984.63;;;26.41;42.41
21182;BME280;10749;46.296;7.524;2023-07-16T08:03:53;94988.94;;;26.52;42.02
21182;BME280;10749;46.296;7.524;2023-07-16T08:06:18;94987.81;;;26.63;42.16
21182;BME280;10749;46.296;7.524;2023-07-16T08:08:43;94972.06;;;26.60;41.85
21182;BME280;10749;46.296;7.524;2023-07-16T08:11:09;94982.94;;;26.60;41.91
21182;BME280;10749;46.296;7.524;2023-07-16T08:13:34;94980.78;;;26.57;41.78
21182;BME280;10749;46.296;7.524;2023-07-16T08:15:59;94972.63;;;26.62;41.67
21182;BME280;10749;46.296;7.524;2023-07-16T08:18:24;94974.22;;;26.74;41.87
21182;BME280;10749;46.296;7.524;2023-07-16T08:20:50;94970.94;;;26.72;41.71
21182;BME280;10749;46.296;7.524;2023-07-16T08:23:15;94977.75;;;26.69;41.57
21182;BME280;10749;46.296;7.524;2023-07-16T08:25:42;94969.84;;;26.78;41.75
21182;BME280;10749;46.296;7.524;2023-07-16T08:28:07;94984.50;;;26.87;41.64
21182;BME280;10749;46.296;7.524;2023-07-16T08:30:33;94972.78;;;26.96;41.66
21182;BME280;10749;46.296;7.524;2023-07-16T08:32:58;94968.13;;;27.07;41.66
21182;BME280;10749;46.296;7.524;2023-07-16T08:35:24;94975.19;;;27.08;41.60
21182;BME280;10749;46.296;7.524;2023-07-16T08:37:49;94974.91;;;27.04;41.67
21182;BME280;10749;46.296;7.524;2023-07-16T08:40:15;94978.44;;;27.10;41.46
21182;BME280;10749;46.296;7.524;2023-07-16T08:42:44;94970.84;;;27.07;41.29
21182;BME280;10749;46.296;7.524;2023-07-16T08:45:10;94962.16;;;27.05;41.39
21182;BME280;10749;46.296;7.524;2023-07-16T08:47:36;94963.16;;;27.24;41.54
21182;BME280;10749;46.296;7.524;2023-07-16T08:50:02;94960.09;;;27.36;41.33
21182;BME280;10749;46.296;7.524;2023-07-16T08:52:27;94969.03;;;27.41;41.18
21182;BME280;10749;46.296;7.524;2023-07-16T08:54:53;94958.09;;;27.51;41.21
21182;BME280;10749;46.296;7.524;2023-07-16T08:57:20;94942.00;;;27.60;41.20
21182;BME280;10749;46.296;7.524;2023-07-16T08:59:48;94944.19;;;27.58;41.40
21182;BME280;10749;46.296;7.524;2023-07-16T09:02:16;94954.88;;;27.49;41.05
21182;BME280;10749;46.296;7.524;2023-07-16T09:04:42;94952.19;;;27.34;41.08
21182;BME280;10749;46.296;7.524;2023-07-16T09:07:07;94950.38;;;27.25;41.21
21182;BME280;10749;46.296;7.524;2023-07-16T09:09:32;94955.25;;;27.23;41.22
21182;BME280;10749;46.296;7.524;2023-07-16T09:11:58;94955.03;;;27.19;41.18
21182;BME280;10749;46.296;7.524;2023-07-16T09:14:23;94953.38;;;27.18;41.42
21182;BME280;10749;46.296;7.524;2023-07-16T09:16:50;94952.81;;;27.21;41.27
21182;BME280;10749;46.296;7.524;2023-07-16T09:19:15;94943.69;;;27.07;41.21
21182;BME280;10749;46.296;7.524;2023-07-16T09:21:46;94943.59;;;27.17;41.35
21182;BME280;10749;46.296;7.524;2023-07-16T09:24:11;94928.28;;;27.36;41.54
21182;BME280;10749;46.296;7.524;2023-07-16T09:26:37;94917.66;;;27.40;41.33
21182;BME280;10749;46.296;7.524;2023-07-16T09:29:06;94929.09;;;27.37;41.33
21182;BME280;10749;46.296;7.524;2023-07-16T09:31:33;94926.59;;;27.45;41.60
21182;BME280;10749;46.296;7.524;2023-07-16T09:33:58;94924.09;;;27.54;41.12
21182;BME280;10749;46.296;7.524;2023-07-16T09:36:26;94921.66;;;27.58;41.30
21182;BME280;10749;46.296;7.524;2023-07-16T09:38:53;94923.78;;;27.61;41.01
21182;BME280;10749;46.296;7.524;2023-07-16T09:41:20;94911.88;;;27.57;40.96
21182;BME280;10749;46.296;7.524;2023-07-16T09:43:46;94919.00;;;27.47;41.39
21182;BME280;10749;46.296;7.524;2023-07-16T09:46:11;94915.84;;;27.69;41.17
21182;BME280;10749;46.296;7.524;2023-07-16T09:48:36;94912.31;;;27.69;41.04
21182;BME280;10749;46.296;7.524;2023-07-16T09:51:02;94906.84;;;27.74;41.15
21182;BME280;10749;46.296;7.524;2023-07-16T09:53:30;94907.66;;;27.74;41.08
21182;BME280;10749;46.296;7.524;2023-07-16T09:55:56;94913.63;;;27.71;41.15
21182;BME280;10749;46.296;7.524;2023-07-16T09:58:24;94910.81;;;27.86;41.19
21182;BME280;10749;46.296;7.524;2023-07-16T10:00:50;94902.84;;;27.95;40.90
21182;BME280;10749;46.296;7.524;2023-07-16T10:03:16;94901.91;;;28.05;41.03
21182;BME280;10749;46.296;7.524;2023-07-16T10:05:42;94903.75;;;28.14;40.93
21182;BME280;10749;46.296;7.524;2023-07-16T10:08:16;94897.72;;;28.17;40.79
21182;BME280;10749;46.296;7.524;2023-07-16T10:13:10;94901.34;;;28.08;40.83
21182;BME280;10749;46.296;7.524;2023-07-16T10:15:36;94887.94;;;28.16;40.82
21182;BME280;10749;46.296;7.524;2023-07-16T10:18:01;94896.44;;;28.10;40.73
21182;BME280;10749;46.296;7.524;2023-07-16T10:20:30;94891.56;;;28.12;40.70
21182;BME280;10749;46.296;7.524;2023-07-16T10:22:56;94880.66;;;28.12;40.41
21182;BME280;10749;46.296;7.524;2023-07-16T10:25:24;94883.09;;;28.13;40.59
21182;BME280;10749;46.296;7.524;2023-07-16T10:27:51;94887.94;;;28.16;40.49
21182;BME280;10749;46.296;7.524;2023-07-16T10:30:17;94881.06;;;27.95;40.60
21182;BME280;10749;46.296;7.524;2023-07-16T10:32:43;94871.34;;;27.89;40.94
21182;BME280;10749;46.296;7.524;2023-07-16T10:35:09;94869.63;;;27.98;40.70
21182;BME280;10749;46.296;7.524;2023-07-16T10:37:35;94868.16;;;28.06;40.78
21182;BME280;10749;46.296;7.524;2023-07-16T10:40:02;94871.78;;;28.25;40.98
21182;BME280;10749;46.296;7.524;2023-07-16T10:42:31;94872.56;;;28.30;41.06
21182;BME280;10749;46.296;7.524;2023-07-16T10:45:02;94873.59;;;28.34;40.90
21182;BME280;10749;46.296;7.524;2023-07-16T10:47:35;94863.31;;;28.31;40.47
21182;BME280;10749;46.296;7.524;2023-07-16T10:50:06;94863.16;;;28.41;40.76
21182;BME280;10749;46.296;7.524;2023-07-16T10:52:34;94876.72;;;28.47;40.57
21182;BME280;10749;46.296;7.524;2023-07-16T10:54:59;94864.47;;;28.49;40.84
21182;BME280;10749;46.296;7.524;2023-07-16T10:57:25;94864.38;;;28.54;40.81
21182;BME280;10749;46.296;7.524;2023-07-16T10:59:52;94861.81;;;28.63;40.72
21182;BME280;10749;46.296;7.524;2023-07-16T11:02:17;94861.31;;;28.61;40.84
21182;BME280;10749;46.296;7.524;2023-07-16T11:04:44;94856.72;;;28.80;40.97
21182;BME280;10749;46.296;7.524;2023-07-16T11:07:12;94849.16;;;28.77;40.47
21182;BME280;10749;46.296;7.524;2023-07-16T11:09:51;94852.50;;;28.69;40.68
21182;BME280;10749;46.296;7.524;2023-07-16T11:12:19;94852.38;;;28.79;40.32
21182;BME280;10749;46.296;7.524;2023-07-16T11:14:47;94857.91;;;28.74;40.46
21182;BME280;10749;46.296;7.524;2023-07-16T11:17:14;94850.78;;;28.78;40.49
21182;BME280;10749;46.296;7.524;2023-07-16T11:19:40;94857.75;;;28.84;40.57
21182;BME280;10749;46.296;7.524;2023-07-16T11:22:08;94856.06;;;28.88;40.23
21182;BME280;10749;46.296;7.524;2023-07-16T11:24:38;94845.59;;;28.95;40.50
21182;BME280;10749;46.296;7.524;2023-07-16T11:27:03;94845.03;;;28.79;39.90
21182;BME280;10749;46.296;7.524;2023-07-16T11:29:34;94847.41;;;28.62;40.23
21182;BME280;10749;46.296;7.524;2023-07-16T11:32:01;94837.28;;;28.86;40.34
21182;BME280;10749;46.296;7.524;2023-07-16T11:34:27;94836.69;;;29.08;40.31
21182;BME280;10749;46.296;7.524;2023-07-16T11:36:52;94836.50;;;29.23;39.94
21182;BME280;10749;46.296;7.524;2023-07-16T11:39:18;94829.50;;;29.36;40.22
21182;BME280;10749;46.296;7.524;2023-07-16T11:41:55;94833.28;;;29.54;39.93
21182;BME280;10749;46.296;7.524;2023-07-16T11:44:20;94820.50;;;29.68;40.15
21182;BME280;10749;46.296;7.524;2023-07-16T11:46:46;94821.56;;;29.86;39.89
21182;BME280;10749;46.296;7.524;2023-07-16T11:49:11;94814.78;;;29.83;39.60
21182;BME280;10749;46.296;7.524;2023-07-16T11:51:37;94815.53;;;29.89;39.57
21182;BME280;10749;46.296;7.524;2023-07-16T11:54:02;94815.31;;;29.85;39.66
21182;BME280;10749;46.296;7.524;2023-07-16T11:56:27;94801.81;;;29.94;39.44
21182;BME280;10749;46.296;7.524;2023-07-16T11:58:53;94799.97;;;30.03;39.61
21182;BME280;10749;46.296;7.524;2023-07-16T12:01:18;94795.94;;;30.14;39.45
21182;BME280;10749;46.296;7.524;2023-07-16T12:03:43;94792.09;;;30.29;39.21
21182;BME280;10749;46.296;7.524;2023-07-16T12:06:09;94792.50;;;30.22;39.19
21182;BME280;10749;46.296;7.524;2023-07-16T12:08:34;94789.38;;;30.29;39.13
21182;BME280;10749;46.296;7.524;2023-07-16T12:10:59;94782.78;;;30.43;39.38
21182;BME280;10749;46.296;7.524;2023-07-16T12:13:25;94788.69;;;30.50;39.25
21182;BME280;10749;46.296;7.524;2023-07-16T12:15:50;94786.88;;;30.46;38.68
21182;BME280;10749;46.296;7.524;2023-07-16T12:18:15;94782.78;;;30.57;38.69
21182;BME280;10749;46.296;7.524;2023-07-16T12:20:41;94772.94;;;30.69;38.91
21182;BME280;10749;46.296;7.524;2023-07-16T12:23:06;94771.41;;;30.77;38.92
21182;BME280;10749;46.296;7.524;2023-07-16T12:25:31;94767.34;;;30.88;38.81
21182;BME280;10749;46.296;7.524;2023-07-16T12:27:57;94764.50;;;30.93;38.90
21182;BME280;10749;46.296;7.524;2023-07-16T12:30:23;94762.06;;;31.05;38.69
21182;BME280;10749;46.296;7.524;2023-07-16T12:32:49;94766.66;;;31.19;38.56
21182;BME280;10749;46.296;7.524;2023-07-16T12:35:14;94759.19;;;31.33;38.50
21182;BME280;10749;46.296;7.524;2023-07-16T12:37:39;94763.91;;;31.41;38.09
21182;BME280;10749;46.296;7.524;2023-07-16T12:40:05;94753.34;;;31.48;38.00
21182;BME280;10749;46.296;7.524;2023-07-16T12:42:31;94752.34;;;31.44;38.00
21182;BME280;10749;46.296;7.524;2023-07-16T12:44:57;94748.63;;;31.62;37.73
21182;BME280;10749;46.296;7.524;2023-07-16T12:47:22;94747.88;;;31.70;37.81
21182;BME280;10749;46.296;7.524;2023-07-16T12:49:47;94745.22;;;31.87;37.94
21182;BME280;10749;46.296;7.524;2023-07-16T12:52:13;94745.16;;;32.10;37.66
21182;BME280;10749;46.296;7.524;2023-07-16T12:54:38;94739.91;;;32.22;37.45
21182;BME280;10749;46.296;7.524;2023-07-16T12:57:03;94741.66;;;32.26;36.93
21182;BME280;10749;46.296;7.524;2023-07-16T12:59:29;94737.03;;;32.44;37.40
21182;BME280;10749;46.296;7.524;2023-07-16T13:01:55;94731.44;;;32.58;36.84